Impacts METAR Board
IDs:

KLAX - Los Angeles Intl, CA, US

Updated at: 0900 UTC 25 May 2020
Potential Impact None Slight Moderate High
Time 24/21Z 24/22Z 24/23Z 25/00Z 25/01Z 25/02Z 25/03Z 25/04Z 25/05Z 25/06Z 25/07Z 25/08Z 25/09Z
Temp68 69 69 67 65 63 61 61 61 61 61 60 60
Dewpt56 56 57 57 57 57 55 54 54 54 55 55 54
Altim29.92 29.91 29.90 29.89 29.88 29.87 29.88 29.88 29.89 29.90 29.91 29.89 29.89
VIS10 10 10 10 10 10 9 10 10 10 10 10 10
CIG-- -- -- -- -- -- -- -- -- -- -- -- --
CoverFEWFEWFEWFEWFEWFEWFEWFEWCLRCLRCLRCLRCLR
FltCatVFRVFRVFRVFRVFRVFRVFRVFRVFRVFRVFRVFRVFR
WX--------------------------
WDir260250260250250270240240190180200140240
WSpd12 16 17 13 12 11 7 5 4 5 3 3 5
WGst-- -- -- -- -- -- -- -- -- -- -- -- --
Raw hourly METARs
KLAX 242053Z 26012KT 10SM FEW300 20/13 A2992 RMK AO2 SLP131 T02000133 58010 $
KLAX 242153Z 25016KT 10SM FEW250 21/13 A2991 RMK AO2 SLP127 T02060133 $
KLAX 242253Z 26017KT 10SM FEW015 21/14 A2990 RMK AO2 SLP123 T02060139 $
KLAX 242353Z 25013KT 10SM FEW012 19/14 A2989 RMK AO2 SLP120 T01940139 10211 20194 56011 $
KLAX 250053Z 25012KT 10SM FEW011 FEW250 18/14 A2988 RMK AO2 SLP117 T01830139 $
KLAX 250153Z 27011KT 10SM FEW010 FEW250 17/14 A2987 RMK AO2 SLP114 T01720139 $
KLAX 250253Z 24007KT 9SM FEW250 16/13 A2988 RMK AO2 SLP116 T01610128 55004 $
KLAX 250353Z 24005KT 10SM FEW250 16/12 A2988 RMK AO2 SLP118 T01610122 $
KLAX 250453Z 19004KT 10SM CLR 16/12 A2989 RMK AO2 SLP119 T01610122 $
KLAX 250553Z 18005KT 10SM CLR 16/12 A2990 RMK AO2 SLP123 T01610122 10194 20156 53007 $
KLAX 250653Z 20003KT 10SM CLR 16/13 A2991 RMK AO2 SLP124 T01610128 $
KLAX 250753Z 14003KT 10SM CLR 16/13 A2989 RMK AO2 SLP121 T01560128 402110150 $
KLAX 250853Z 24005KT 10SM CLR 16/12 A2989 RMK AO2 SLP119 T01560122 58004 $



Page loaded:  09:06 UTC  |   02:06 AM Pacific  |   03:06 AM Mountain  |   04:06 AM Central  |   05:06 AM Eastern

 

ADVISORIES

FORECASTS

FORECASTS

OBSERVATIONS

USER TOOLS

ABOUT US